createdAt,value
2017-10-17T00:01:55.299Z,7.63
2017-10-17T00:04:23.370Z,7.13
2017-10-17T00:06:52.362Z,9.47
2017-10-17T00:09:20.431Z,6.80
2017-10-17T00:11:48.766Z,8.50
2017-10-17T00:14:17.699Z,8.20
2017-10-17T00:16:45.731Z,7.90
2017-10-17T00:19:15.374Z,8.23
2017-10-17T00:21:43.342Z,6.80
2017-10-17T00:24:11.830Z,7.37
2017-10-17T00:26:41.324Z,7.13
2017-10-17T00:29:08.830Z,8.87
2017-10-17T00:31:36.387Z,9.50
2017-10-17T00:34:03.955Z,7.73
2017-10-17T00:36:32.237Z,11.03
2017-10-17T00:39:02.077Z,8.57
2017-10-17T00:41:29.606Z,9.03
2017-10-17T00:43:57.937Z,8.50
2017-10-17T00:46:26.694Z,12.00
2017-10-17T00:48:54.218Z,10.47
2017-10-17T00:51:23.318Z,7.93
2017-10-17T00:53:51.606Z,7.50
2017-10-17T00:56:19.886Z,7.00
2017-10-17T00:58:48.148Z,18.33
2017-10-17T01:01:16.435Z,7.70
2017-10-17T01:03:43.937Z,7.93
2017-10-17T01:06:11.473Z,7.13
2017-10-17T01:08:39.934Z,8.43
2017-10-17T01:11:07.467Z,10.10
2017-10-17T01:13:35.726Z,7.47
2017-10-17T01:16:04.202Z,8.27
2017-10-17T01:18:31.701Z,7.90
2017-10-17T01:21:00.081Z,7.27
2017-10-17T01:23:34.329Z,8.03
2017-10-17T01:26:01.850Z,6.90
2017-10-17T01:28:30.963Z,6.60
2017-10-17T01:30:58.533Z,7.23
2017-10-17T01:33:26.042Z,8.70
2017-10-17T01:35:54.383Z,6.87
2017-10-17T01:38:21.885Z,6.53
2017-10-17T01:40:49.422Z,6.60
2017-10-17T01:46:15.661Z,7.37
2017-10-17T01:48:43.921Z,11.10
2017-10-17T01:51:14.265Z,8.00
2017-10-17T01:53:48.609Z,7.00
2017-10-17T01:56:17.622Z,8.70
2017-10-17T01:58:46.083Z,7.67
2017-10-17T02:01:13.602Z,7.40
2017-10-17T02:03:41.101Z,6.80
2017-10-17T02:06:08.641Z,7.17
2017-10-17T02:08:36.910Z,6.53
2017-10-17T02:14:00.249Z,6.77
2017-10-17T02:16:27.774Z,7.20
2017-10-17T02:18:57.183Z,6.90
2017-10-17T02:21:26.562Z,6.83
2017-10-17T02:23:54.059Z,7.37
2017-10-17T02:26:23.421Z,7.10
2017-10-17T02:28:51.766Z,6.80
2017-10-17T02:31:20.044Z,6.60
2017-10-17T02:33:52.043Z,6.27
2017-10-17T02:36:19.573Z,6.30
2017-10-17T02:38:47.838Z,7.27
2017-10-17T02:41:17.299Z,7.03
2017-10-17T02:43:59.675Z,6.37
2017-10-17T02:46:27.929Z,5.80
2017-10-17T02:49:01.794Z,7.37
2017-10-17T02:51:30.325Z,8.60
2017-10-17T02:53:58.591Z,6.67
2017-10-17T02:56:26.882Z,6.47
2017-10-17T02:58:55.217Z,7.47
2017-10-17T03:01:27.706Z,6.50
2017-10-17T03:03:55.202Z,5.83
2017-10-17T03:06:22.719Z,6.50
2017-10-17T03:08:50.215Z,6.47
2017-10-17T03:11:17.746Z,7.30
2017-10-17T03:13:47.852Z,6.17
2017-10-17T03:16:18.038Z,7.03
2017-10-17T03:18:45.530Z,7.63
2017-10-17T03:21:14.845Z,7.07
2017-10-17T03:23:47.948Z,5.50
2017-10-17T03:26:15.472Z,6.27
2017-10-17T03:28:43.859Z,6.50
2017-10-17T03:31:12.959Z,6.50
2017-10-17T03:33:41.220Z,6.00
2017-10-17T03:36:16.839Z,7.57
2017-10-17T03:38:47.058Z,6.10
2017-10-17T03:41:35.305Z,6.10
2017-10-17T03:44:07.635Z,5.87
2017-10-17T03:46:38.716Z,7.17
2017-10-17T03:49:06.210Z,6.67
2017-10-17T03:51:35.463Z,7.67
2017-10-17T03:54:03.833Z,6.70
2017-10-17T03:56:31.330Z,6.30
2017-10-17T03:59:00.677Z,6.43
2017-10-17T04:01:30.271Z,5.83
2017-10-17T04:04:07.585Z,6.43
2017-10-17T04:06:50.862Z,6.60
2017-10-17T04:09:19.143Z,5.47
2017-10-17T04:11:47.410Z,6.70
2017-10-17T04:17:19.447Z,6.20
2017-10-17T04:19:53.590Z,6.17
2017-10-17T04:25:37.570Z,5.47
2017-10-17T04:28:37.322Z,6.20
2017-10-17T04:31:27.479Z,6.57
2017-10-17T04:34:07.829Z,6.73
2017-10-17T04:36:37.022Z,7.33
2017-10-17T04:39:05.290Z,6.80
2017-10-17T04:45:08.954Z,6.80
2017-10-17T04:47:51.018Z,6.63
2017-10-17T04:50:24.150Z,5.53
2017-10-17T04:53:03.489Z,6.50
2017-10-17T04:55:30.989Z,6.07
2017-10-17T04:57:58.485Z,8.50
2017-10-17T05:00:27.764Z,6.80
2017-10-17T05:03:16.754Z,7.23
2017-10-17T05:05:48.153Z,5.73
2017-10-17T05:08:24.280Z,7.40
2017-10-17T05:14:00.410Z,6.10
2017-10-17T05:16:43.719Z,6.70
2017-10-17T05:19:34.870Z,6.60
2017-10-17T05:22:08.374Z,6.90
2017-10-17T05:24:53.725Z,6.93
2017-10-17T05:27:27.951Z,6.50
2017-10-17T05:30:12.238Z,6.60
2017-10-17T05:32:39.763Z,6.27
2017-10-17T05:35:07.254Z,5.57
2017-10-17T05:37:38.426Z,6.23
2017-10-17T05:40:18.619Z,5.57
2017-10-17T05:42:46.585Z,6.03
2017-10-17T05:45:19.468Z,5.53
2017-10-17T05:47:47.539Z,5.93
2017-10-17T05:50:21.343Z,7.03
2017-10-17T05:52:49.310Z,5.93
2017-10-17T05:55:17.176Z,6.93
2017-10-17T05:57:45.962Z,5.43
2017-10-17T06:00:15.045Z,7.40
2017-10-17T06:02:43.331Z,6.37
2017-10-17T06:05:11.469Z,5.87
2017-10-17T06:07:39.477Z,6.60
2017-10-17T06:10:07.544Z,5.90
2017-10-17T06:12:35.715Z,6.63
2017-10-17T06:15:05.218Z,6.30
2017-10-17T06:17:34.266Z,6.10
2017-10-17T06:20:02.484Z,6.77
2017-10-17T06:22:30.506Z,4.70
2017-10-17T06:24:58.523Z,5.80
2017-10-17T06:27:27.411Z,5.73
2017-10-17T06:29:55.477Z,87.60
2017-10-17T06:32:23.553Z,110.60
2017-10-17T06:34:54.080Z,120.50
2017-10-17T06:37:22.151Z,123.07
2017-10-17T06:39:51.141Z,76.60
2017-10-17T06:42:19.109Z,65.57
2017-10-17T06:44:47.077Z,75.57
2017-10-17T06:47:15.044Z,82.50
2017-10-17T06:49:43.114Z,83.57
2017-10-17T06:52:10.979Z,82.23
2017-10-17T06:54:39.039Z,84.57
2017-10-17T06:57:07.017Z,80.80
2017-10-17T06:59:34.987Z,83.37
2017-10-17T07:02:03.023Z,77.13
2017-10-17T07:04:31.025Z,95.20
2017-10-17T07:06:59.093Z,89.40
2017-10-17T07:09:27.062Z,86.53
2017-10-17T07:11:55.131Z,84.47
2017-10-17T07:14:24.021Z,82.40
2017-10-17T07:16:52.075Z,83.60
2017-10-17T07:19:20.000Z,84.00
2017-10-17T07:21:47.962Z,68.07
2017-10-17T07:24:17.770Z,67.30
2017-10-17T07:26:47.232Z,64.17
2017-10-17T07:29:14.791Z,65.50
2017-10-17T07:31:42.326Z,84.87
2017-10-17T07:34:10.594Z,59.93
2017-10-17T07:36:38.910Z,50.07
2017-10-17T07:39:06.411Z,61.60
2017-10-17T07:41:34.702Z,62.27
2017-10-17T07:44:02.969Z,42.97
2017-10-17T07:46:33.243Z,54.60
2017-10-17T07:49:00.757Z,45.13
2017-10-17T07:51:29.060Z,57.83
2017-10-17T07:53:56.562Z,55.07
2017-10-17T07:56:24.077Z,55.57
2017-10-17T07:58:51.609Z,60.30
2017-10-17T08:01:19.882Z,40.90
2017-10-17T08:03:48.167Z,52.07
2017-10-17T08:06:15.713Z,47.37
2017-10-17T08:08:43.988Z,52.30
2017-10-17T08:11:14.253Z,41.07
2017-10-17T08:13:41.762Z,36.13
2017-10-17T08:16:12.007Z,46.27
2017-10-17T08:18:39.506Z,48.43
2017-10-17T08:21:07.041Z,45.57
2017-10-17T08:23:34.575Z,50.53
2017-10-17T08:26:02.082Z,29.33
2017-10-17T08:28:29.614Z,38.80
2017-10-17T08:30:57.114Z,50.37
2017-10-17T08:33:25.393Z,35.73
2017-10-17T08:35:53.682Z,43.77
2017-10-17T08:38:21.952Z,35.93
2017-10-17T08:40:50.260Z,34.37
2017-10-17T08:43:17.762Z,36.37
2017-10-17T08:45:45.286Z,25.00
2017-10-17T08:48:12.798Z,30.97
2017-10-17T08:50:41.090Z,23.73
2017-10-17T08:53:08.597Z,23.13
2017-10-17T08:55:36.132Z,27.73
2017-10-17T08:58:04.570Z,26.43
2017-10-17T09:00:32.858Z,26.43
2017-10-17T09:03:00.381Z,24.90
2017-10-17T09:05:27.906Z,24.87
2017-10-17T09:07:55.413Z,32.57
2017-10-17T09:10:23.710Z,20.83
2017-10-17T09:12:51.222Z,21.13
2017-10-17T09:15:18.730Z,22.60
2017-10-17T09:17:46.254Z,25.20
2017-10-17T09:20:14.526Z,19.40
2017-10-17T09:22:42.052Z,23.43
2017-10-17T09:25:09.549Z,15.40
2017-10-17T09:27:37.833Z,15.93
2017-10-17T09:30:06.098Z,15.77
2017-10-17T09:32:34.386Z,32.50
2017-10-17T09:35:02.658Z,18.53
2017-10-17T09:37:30.183Z,22.00
2017-10-17T09:39:57.714Z,15.20
2017-10-17T09:42:27.181Z,20.27
2017-10-17T09:44:54.682Z,19.10
2017-10-17T09:47:22.205Z,18.57
2017-10-17T09:49:49.710Z,15.87
2017-10-17T09:52:19.183Z,18.13
2017-10-17T09:54:46.682Z,13.77
2017-10-17T09:57:14.970Z,11.30
2017-10-17T09:59:43.239Z,14.90
2017-10-17T10:02:13.502Z,14.90
2017-10-17T10:04:41.002Z,13.27
2017-10-17T10:07:08.535Z,15.67
2017-10-17T10:09:36.028Z,12.27
2017-10-17T10:12:04.314Z,20.20
2017-10-17T10:14:32.581Z,13.97
2017-10-17T10:17:00.102Z,13.77
2017-10-17T10:19:27.613Z,11.97
2017-10-17T10:21:57.122Z,16.23
2017-10-17T10:24:24.630Z,13.07
2017-10-17T10:26:52.157Z,13.50
2017-10-17T10:29:19.658Z,8.67
2017-10-17T10:31:48.130Z,11.47
2017-10-17T10:34:17.143Z,9.70
2017-10-17T10:36:45.437Z,10.33
2017-10-17T10:39:12.930Z,12.00
2017-10-17T10:41:40.458Z,11.00
2017-10-17T10:44:07.953Z,10.30
2017-10-17T10:46:35.466Z,8.73
2017-10-17T10:49:02.967Z,9.63
2017-10-17T10:51:30.486Z,9.93
2017-10-17T10:53:58.946Z,9.53
2017-10-17T10:56:27.233Z,14.57
2017-10-17T10:58:55.497Z,10.50
2017-10-17T11:01:23.786Z,11.47
2017-10-17T11:03:52.266Z,10.33
2017-10-17T11:06:19.786Z,18.23
2017-10-17T11:08:47.282Z,10.40
2017-10-17T11:11:14.810Z,10.10
2017-10-17T11:13:42.304Z,9.30
2017-10-17T11:16:09.834Z,8.70
2017-10-17T11:18:38.095Z,9.03
2017-10-17T11:21:05.614Z,8.00
2017-10-17T11:23:34.064Z,7.57
2017-10-17T11:26:01.590Z,8.93
2017-10-17T11:28:29.091Z,8.47
2017-10-17T11:30:56.619Z,6.13
2017-10-17T11:33:25.834Z,8.13
2017-10-17T11:35:53.374Z,9.97
2017-10-17T11:38:21.636Z,9.43
2017-10-17T11:41:01.073Z,8.60
2017-10-17T11:43:40.333Z,11.40
2017-10-17T11:46:07.867Z,12.37
2017-10-17T11:48:36.138Z,8.93
2017-10-17T11:51:03.658Z,7.33
2017-10-17T11:53:31.174Z,6.70
2017-10-17T11:55:58.693Z,5.90
2017-10-17T11:58:26.201Z,6.43
2017-10-17T12:00:53.714Z,6.53
2017-10-17T12:03:22.722Z,8.47
2017-10-17T12:05:51.023Z,6.73
2017-10-17T12:08:18.520Z,5.23
2017-10-17T12:10:47.994Z,6.20
2017-10-17T12:13:15.494Z,8.10
2017-10-17T12:15:43.007Z,6.37
2017-10-17T12:18:11.454Z,8.23
2017-10-17T12:20:39.746Z,7.30
2017-10-17T12:23:07.246Z,8.33
2017-10-17T12:25:34.766Z,5.80
2017-10-17T12:28:02.261Z,6.07
2017-10-17T12:30:29.782Z,6.60
2017-10-17T12:32:57.278Z,8.03
2017-10-17T12:35:24.795Z,6.47
2017-10-17T12:37:52.298Z,7.03
2017-10-17T12:40:19.817Z,6.73
2017-10-17T12:42:47.343Z,5.30
2017-10-17T12:45:15.626Z,7.00
2017-10-17T12:47:43.886Z,5.53
2017-10-17T12:50:12.170Z,5.40
2017-10-17T12:52:40.439Z,9.17
2017-10-17T12:55:08.722Z,5.23
2017-10-17T12:57:36.988Z,6.10
2017-10-17T13:00:06.238Z,8.40
2017-10-17T13:02:33.739Z,5.93
2017-10-17T13:05:02.019Z,7.57
2017-10-17T13:07:30.294Z,5.80
2017-10-17T13:09:58.574Z,5.87
2017-10-17T13:12:27.773Z,5.60
2017-10-17T13:14:56.062Z,8.83
2017-10-17T13:17:23.562Z,5.57
2017-10-17T13:19:51.090Z,6.80
2017-10-17T13:22:19.551Z,6.03
2017-10-17T13:24:47.070Z,5.73
2017-10-17T13:27:14.574Z,6.30
2017-10-17T13:29:44.068Z,4.70
2017-10-17T13:32:11.566Z,6.73
2017-10-17T13:34:39.086Z,6.00
2017-10-17T13:37:06.586Z,5.30
2017-10-17T13:39:34.111Z,6.50
2017-10-17T13:42:02.570Z,6.93
2017-10-17T13:44:30.094Z,6.63
2017-10-17T13:46:57.603Z,4.80
2017-10-17T13:49:25.123Z,5.50
2017-10-17T13:51:53.390Z,6.07
2017-10-17T13:54:20.910Z,5.50
2017-10-17T13:56:48.418Z,4.97
2017-10-17T13:59:17.661Z,5.83
2017-10-17T14:01:45.157Z,5.90
2017-10-17T14:04:12.670Z,5.13
2017-10-17T14:06:40.165Z,5.00
2017-10-17T14:09:07.696Z,5.73
2017-10-17T14:11:35.190Z,5.57
2017-10-17T14:14:02.718Z,5.43
2017-10-17T14:16:30.220Z,6.17
2017-10-17T14:18:58.510Z,8.33
2017-10-17T14:21:26.000Z,4.87
2017-10-17T14:23:55.465Z,8.90
2017-10-17T14:26:22.964Z,5.67
2017-10-17T14:28:50.498Z,5.37
2017-10-17T14:31:18.005Z,5.07
2017-10-17T14:33:45.521Z,6.20
2017-10-17T14:36:13.018Z,5.43
2017-10-17T14:38:40.549Z,5.80
2017-10-17T14:41:09.007Z,5.60
2017-10-17T14:43:36.527Z,5.17
2017-10-17T14:46:04.784Z,5.73
2017-10-17T14:48:32.337Z,5.23
2017-10-17T14:51:00.818Z,7.10
2017-10-17T14:53:29.857Z,5.20
2017-10-17T14:55:58.327Z,5.43
2017-10-17T14:58:25.841Z,5.10
2017-10-17T15:00:54.115Z,6.70
2017-10-17T15:03:21.661Z,5.97
2017-10-17T15:05:49.165Z,5.07
2017-10-17T15:08:17.451Z,5.13
2017-10-17T15:10:44.950Z,5.37
2017-10-17T15:13:12.471Z,5.70
2017-10-17T15:15:39.965Z,4.60
2017-10-17T15:18:09.439Z,5.67
2017-10-17T15:20:36.929Z,5.33
2017-10-17T15:23:04.458Z,4.57
2017-10-17T15:25:31.962Z,6.30
2017-10-17T15:27:59.482Z,6.53
2017-10-17T15:30:26.986Z,5.10
2017-10-17T15:32:54.478Z,4.80
2017-10-17T15:35:22.002Z,4.87
2017-10-17T15:37:50.278Z,4.33
2017-10-17T15:40:18.563Z,5.60
2017-10-17T15:42:47.794Z,5.70
2017-10-17T15:45:15.314Z,5.73
2017-10-17T15:47:43.577Z,4.97
2017-10-17T15:50:11.880Z,4.20
2017-10-17T15:52:39.386Z,4.43
2017-10-17T15:55:08.863Z,7.23
2017-10-17T15:57:36.366Z,6.57
2017-10-17T16:00:04.698Z,4.90
2017-10-17T16:02:32.195Z,4.43
2017-10-17T16:04:59.718Z,5.07
2017-10-17T16:07:27.221Z,4.57
2017-10-17T16:09:55.503Z,4.77
2017-10-17T16:12:23.005Z,4.20
2017-10-17T16:14:52.483Z,5.77
2017-10-17T16:17:19.986Z,5.50
2017-10-17T16:19:47.514Z,4.03
2017-10-17T16:22:15.010Z,4.40
2017-10-17T16:24:42.530Z,4.50
2017-10-17T16:27:10.026Z,4.70
2017-10-17T16:29:37.546Z,4.03
2017-10-17T16:32:05.042Z,4.63
2017-10-17T16:34:34.502Z,4.60
2017-10-17T16:37:01.994Z,4.90
2017-10-17T16:39:29.526Z,5.30
2017-10-17T16:41:57.026Z,4.33
2017-10-17T16:44:25.322Z,4.57
2017-10-17T16:46:52.818Z,5.30
2017-10-17T16:49:22.287Z,4.80
2017-10-17T16:51:49.779Z,4.27
2017-10-17T16:54:17.301Z,4.83
2017-10-17T16:56:44.797Z,4.37
2017-10-17T16:59:13.259Z,4.00
2017-10-17T17:01:40.749Z,4.60
2017-10-17T17:04:08.299Z,4.67
2017-10-17T17:06:35.808Z,4.87
2017-10-17T17:09:05.326Z,4.10
2017-10-17T17:11:32.815Z,4.50
2017-10-17T17:14:00.334Z,4.40
2017-10-17T17:16:28.785Z,4.00
2017-10-17T17:18:57.071Z,4.40
2017-10-17T17:21:24.570Z,4.23
2017-10-17T17:23:52.098Z,4.33
2017-10-17T17:26:19.594Z,4.87
2017-10-17T17:28:47.119Z,5.93
2017-10-17T17:31:14.618Z,4.70
2017-10-17T17:33:42.147Z,4.77
2017-10-17T17:36:09.642Z,4.83
2017-10-17T17:38:37.163Z,6.37
2017-10-17T17:41:04.666Z,4.93
2017-10-17T17:43:32.953Z,4.13
2017-10-17T17:46:01.221Z,4.50
2017-10-17T17:48:29.503Z,4.50
2017-10-17T17:50:57.019Z,3.90
2017-10-17T17:53:24.538Z,4.73
2017-10-17T17:55:52.989Z,4.73
2017-10-17T17:58:21.274Z,4.83
2017-10-17T18:00:49.547Z,4.43
2017-10-17T18:03:17.838Z,4.43
2017-10-17T18:05:45.334Z,4.30
2017-10-17T18:08:12.864Z,4.53
2017-10-17T18:10:40.358Z,4.83
2017-10-17T18:13:09.826Z,3.93
2017-10-17T18:15:37.330Z,4.50
2017-10-17T18:18:05.618Z,4.23
2017-10-17T18:20:33.891Z,4.10
2017-10-17T18:23:02.193Z,4.53
2017-10-17T18:25:30.691Z,8.50
2017-10-17T18:27:58.206Z,9.70
2017-10-17T18:30:26.478Z,11.60
2017-10-17T18:32:54.774Z,5.67
2017-10-17T18:35:22.284Z,5.40
2017-10-17T18:37:50.738Z,4.90
2017-10-17T18:40:18.265Z,5.90
2017-10-17T18:42:45.786Z,5.37
2017-10-17T18:45:13.290Z,5.80
2017-10-17T18:47:41.930Z,5.20
2017-10-17T18:50:09.751Z,4.17
2017-10-17T18:52:37.900Z,4.40
2017-10-17T18:55:05.891Z,4.90
2017-10-17T18:57:34.167Z,5.30
2017-10-17T19:00:02.134Z,5.03
2017-10-17T19:02:31.162Z,4.33
2017-10-17T19:04:59.093Z,5.43
2017-10-17T19:07:27.163Z,4.63
2017-10-17T19:09:55.293Z,5.33
2017-10-17T19:12:23.206Z,5.43
2017-10-17T19:14:52.159Z,6.60
2017-10-17T19:17:20.162Z,4.73
2017-10-17T19:19:48.234Z,6.87
2017-10-17T19:22:17.643Z,4.00
2017-10-17T19:24:47.532Z,6.30
2017-10-17T19:27:16.537Z,8.03
2017-10-17T19:29:45.427Z,5.73
2017-10-17T19:32:13.496Z,6.00
2017-10-17T19:34:41.325Z,4.67
2017-10-17T19:37:09.330Z,6.93
2017-10-17T19:39:37.247Z,6.70
2017-10-17T19:42:05.414Z,4.90
2017-10-17T19:44:33.437Z,5.10
2017-10-17T19:47:01.508Z,6.20
2017-10-17T19:49:29.373Z,4.97
2017-10-17T19:51:58.467Z,4.90
2017-10-17T19:54:27.299Z,8.73
2017-10-17T19:56:56.042Z,5.53
2017-10-17T19:59:23.906Z,7.97
2017-10-17T20:01:52.045Z,9.43
2017-10-17T20:04:20.023Z,7.07
2017-10-17T20:06:48.119Z,6.30
2017-10-17T20:09:17.135Z,8.47
2017-10-17T20:11:44.974Z,5.83
2017-10-17T20:14:12.839Z,6.63
2017-10-17T20:16:40.704Z,6.10
2017-10-17T20:19:08.457Z,5.70
2017-10-17T20:21:36.052Z,4.80
2017-10-17T20:24:03.592Z,5.03
2017-10-17T20:26:31.161Z,8.67
2017-10-17T20:28:58.818Z,7.20
2017-10-17T20:31:27.314Z,5.60
2017-10-17T20:33:54.819Z,6.80
2017-10-17T20:36:22.333Z,6.87
2017-10-17T20:38:49.837Z,5.37
2017-10-17T20:41:17.334Z,7.77
2017-10-17T20:43:44.858Z,5.33
2017-10-17T20:46:13.320Z,6.67
2017-10-17T20:48:40.841Z,6.40
2017-10-17T20:51:08.367Z,8.17
2017-10-17T20:53:35.862Z,5.80
2017-10-17T20:56:03.386Z,6.50
2017-10-17T20:58:30.892Z,5.87
2017-10-17T21:00:59.178Z,7.83
2017-10-17T21:03:27.475Z,7.53
2017-10-17T21:05:55.000Z,6.60
2017-10-17T21:08:23.274Z,5.93
2017-10-17T21:10:51.549Z,7.10
2017-10-17T21:13:19.838Z,5.50
2017-10-17T21:15:48.098Z,5.47
2017-10-17T21:18:16.383Z,5.77
2017-10-17T21:20:44.675Z,4.70
2017-10-17T21:23:12.186Z,4.73
2017-10-17T21:25:40.485Z,6.87
2017-10-17T21:28:08.741Z,7.00
2017-10-17T21:30:36.261Z,5.40
2017-10-17T21:33:03.778Z,5.70
2017-10-17T21:35:33.316Z,5.50
2017-10-17T21:38:02.205Z,5.57
2017-10-17T21:40:30.174Z,6.63
2017-10-17T21:42:58.038Z,4.93
2017-10-17T21:45:25.723Z,5.43
2017-10-17T21:47:54.831Z,5.00
2017-10-17T21:50:22.389Z,7.77
2017-10-17T21:52:49.932Z,5.80
2017-10-17T21:55:17.425Z,5.20
2017-10-17T21:57:45.705Z,7.57
2017-10-17T22:00:13.969Z,6.00
2017-10-17T22:02:42.258Z,4.37
2017-10-17T22:05:10.526Z,7.30
2017-10-17T22:07:38.787Z,6.20
2017-10-17T22:10:06.307Z,5.27
2017-10-17T22:12:33.802Z,7.93
2017-10-17T22:15:01.516Z,6.47
2017-10-17T22:17:29.382Z,6.03
2017-10-17T22:19:57.155Z,5.70
2017-10-17T22:22:25.111Z,6.40
2017-10-17T22:24:52.694Z,5.40
2017-10-17T22:27:20.455Z,5.23
2017-10-17T22:29:47.974Z,5.93
2017-10-17T22:32:15.495Z,5.27
2017-10-17T22:34:42.990Z,5.80
2017-10-17T22:37:10.509Z,5.60
2017-10-17T22:39:38.007Z,7.73
2017-10-17T22:42:05.680Z,5.33
2017-10-17T22:44:33.206Z,5.60
2017-10-17T22:47:01.579Z,6.63
2017-10-17T22:49:29.378Z,6.23
2017-10-17T22:51:56.931Z,5.47
2017-10-17T22:54:24.436Z,6.23
2017-10-17T22:56:53.895Z,5.00
2017-10-17T22:59:21.411Z,5.50
2017-10-17T23:01:49.734Z,6.00
2017-10-17T23:04:17.231Z,8.20
2017-10-17T23:06:44.729Z,7.33
2017-10-17T23:09:13.183Z,9.00
2017-10-17T23:11:41.757Z,6.27
2017-10-17T23:14:10.591Z,5.97
2017-10-17T23:16:38.662Z,4.90
2017-10-17T23:19:18.460Z,6.50
2017-10-17T23:21:46.476Z,4.80
2017-10-17T23:24:15.057Z,6.37
2017-10-17T23:26:43.026Z,7.27
2017-10-17T23:29:10.891Z,5.37
2017-10-17T23:31:38.961Z,4.77
2017-10-17T23:34:06.825Z,5.03
2017-10-17T23:36:35.818Z,5.20
2017-10-17T23:39:03.879Z,6.40
2017-10-17T23:41:31.856Z,5.57
2017-10-17T23:43:59.926Z,5.97
2017-10-17T23:46:27.937Z,5.10
2017-10-17T23:48:56.548Z,5.20
2017-10-17T23:51:24.443Z,5.00
2017-10-17T23:53:51.946Z,5.80
2017-10-17T23:56:19.470Z,6.67
2017-10-17T23:58:46.958Z,5.20
